sensor_id;sensor_type;location;lat;lon;timestamp;P1;durP1;ratioP1;P2;durP2;ratioP2
56810;SDS011;42691;47.234;27.494;2022-12-20T00:01:25;41.53;;;36.28;;
56810;SDS011;42691;47.234;27.494;2022-12-20T00:03:53;47.22;;;38.75;;
56810;SDS011;42691;47.234;27.494;2022-12-20T00:06:20;51.80;;;38.40;;
56810;SDS011;42691;47.234;27.494;2022-12-20T00:08:51;46.47;;;34.80;;
56810;SDS011;42691;47.234;27.494;2022-12-20T00:11:18;47.65;;;39.80;;
56810;SDS011;42691;47.234;27.494;2022-12-20T00:13:45;42.85;;;38.30;;
56810;SDS011;42691;47.234;27.494;2022-12-20T00:16:12;45.38;;;37.40;;
56810;SDS011;42691;47.234;27.494;2022-12-20T00:18:39;53.00;;;40.22;;
56810;SDS011;42691;47.234;27.494;2022-12-20T00:21:06;54.97;;;37.55;;
56810;SDS011;42691;47.234;27.494;2022-12-20T00:23:34;44.90;;;37.22;;
56810;SDS011;42691;47.234;27.494;2022-12-20T00:26:04;51.70;;;39.38;;
56810;SDS011;42691;47.234;27.494;2022-12-20T00:28:34;62.13;;;40.35;;
56810;SDS011;42691;47.234;27.494;2022-12-20T00:31:01;48.60;;;39.63;;
56810;SDS011;42691;47.234;27.494;2022-12-20T00:33:27;48.00;;;38.70;;
56810;SDS011;42691;47.234;27.494;2022-12-20T00:35:53;51.45;;;41.85;;
56810;SDS011;42691;47.234;27.494;2022-12-20T00:38:20;43.38;;;37.67;;
56810;SDS011;42691;47.234;27.494;2022-12-20T00:40:47;40.83;;;36.50;;
56810;SDS011;42691;47.234;27.494;2022-12-20T00:43:12;48.63;;;38.60;;
56810;SDS011;42691;47.234;27.494;2022-12-20T00:45:37;44.60;;;38.63;;
56810;SDS011;42691;47.234;27.494;2022-12-20T00:48:03;50.50;;;38.28;;
56810;SDS011;42691;47.234;27.494;2022-12-20T00:50:29;52.10;;;41.63;;
56810;SDS011;42691;47.234;27.494;2022-12-20T00:52:54;43.92;;;36.20;;
56810;SDS011;42691;47.234;27.494;2022-12-20T00:55:19;39.15;;;33.13;;
56810;SDS011;42691;47.234;27.494;2022-12-20T00:57:45;38.70;;;33.58;;
56810;SDS011;42691;47.234;27.494;2022-12-20T01:00:10;39.67;;;35.47;;
56810;SDS011;42691;47.234;27.494;2022-12-20T01:02:36;42.13;;;33.70;;
56810;SDS011;42691;47.234;27.494;2022-12-20T01:05:02;42.28;;;36.50;;
56810;SDS011;42691;47.234;27.494;2022-12-20T01:07:27;46.05;;;38.83;;
56810;SDS011;42691;47.234;27.494;2022-12-20T01:09:53;43.05;;;36.28;;
56810;SDS011;42691;47.234;27.494;2022-12-20T01:12:18;48.80;;;39.67;;
56810;SDS011;42691;47.234;27.494;2022-12-20T01:14:44;48.22;;;36.28;;
56810;SDS011;42691;47.234;27.494;2022-12-20T01:17:09;40.25;;;35.35;;
56810;SDS011;42691;47.234;27.494;2022-12-20T01:19:35;37.90;;;33.10;;
56810;SDS011;42691;47.234;27.494;2022-12-20T01:22:00;40.80;;;35.70;;
56810;SDS011;42691;47.234;27.494;2022-12-20T01:24:26;41.97;;;36.40;;
56810;SDS011;42691;47.234;27.494;2022-12-20T01:26:51;39.20;;;34.90;;
56810;SDS011;42691;47.234;27.494;2022-12-20T01:29:17;36.30;;;31.58;;
56810;SDS011;42691;47.234;27.494;2022-12-20T01:31:42;46.90;;;34.50;;
56810;SDS011;42691;47.234;27.494;2022-12-20T01:34:09;42.65;;;37.40;;
56810;SDS011;42691;47.234;27.494;2022-12-20T01:36:35;38.95;;;34.88;;
56810;SDS011;42691;47.234;27.494;2022-12-20T01:39:05;39.33;;;34.65;;
56810;SDS011;42691;47.234;27.494;2022-12-20T01:41:33;37.35;;;29.88;;
56810;SDS011;42691;47.234;27.494;2022-12-20T01:44:01;41.40;;;31.90;;
56810;SDS011;42691;47.234;27.494;2022-12-20T01:46:42;40.85;;;31.25;;
56810;SDS011;42691;47.234;27.494;2022-12-20T01:51:35;37.00;;;29.25;;
56810;SDS011;42691;47.234;27.494;2022-12-20T01:54:13;40.70;;;32.72;;
56810;SDS011;42691;47.234;27.494;2022-12-20T01:56:43;40.75;;;30.33;;
56810;SDS011;42691;47.234;27.494;2022-12-20T01:59:14;36.83;;;31.60;;
56810;SDS011;42691;47.234;27.494;2022-12-20T02:01:40;35.78;;;30.85;;
56810;SDS011;42691;47.234;27.494;2022-12-20T02:04:07;39.40;;;31.80;;
56810;SDS011;42691;47.234;27.494;2022-12-20T02:06:34;42.30;;;31.52;;
56810;SDS011;42691;47.234;27.494;2022-12-20T02:08:59;36.33;;;31.42;;
56810;SDS011;42691;47.234;27.494;2022-12-20T02:28:05;38.67;;;28.95;;
56810;SDS011;42691;47.234;27.494;2022-12-20T02:30:39;39.88;;;32.67;;
56810;SDS011;42691;47.234;27.494;2022-12-20T02:33:12;45.03;;;30.20;;
56810;SDS011;42691;47.234;27.494;2022-12-20T02:35:39;40.80;;;33.30;;
56810;SDS011;42691;47.234;27.494;2022-12-20T02:41:00;41.80;;;32.30;;
56810;SDS011;42691;47.234;27.494;2022-12-20T02:43:27;44.28;;;30.58;;
56810;SDS011;42691;47.234;27.494;2022-12-20T02:46:13;35.58;;;28.08;;
56810;SDS011;42691;47.234;27.494;2022-12-20T02:48:40;31.90;;;28.52;;
56810;SDS011;42691;47.234;27.494;2022-12-20T02:51:07;32.30;;;28.75;;
56810;SDS011;42691;47.234;27.494;2022-12-20T02:53:35;37.78;;;27.45;;
56810;SDS011;42691;47.234;27.494;2022-12-20T02:58:47;33.45;;;27.90;;
56810;SDS011;42691;47.234;27.494;2022-12-20T03:01:17;34.25;;;28.60;;
56810;SDS011;42691;47.234;27.494;2022-12-20T03:03:48;39.63;;;29.52;;
56810;SDS011;42691;47.234;27.494;2022-12-20T03:06:16;36.03;;;28.05;;
56810;SDS011;42691;47.234;27.494;2022-12-20T03:08:41;38.83;;;30.08;;
56810;SDS011;42691;47.234;27.494;2022-12-20T03:11:07;32.10;;;27.85;;
56810;SDS011;42691;47.234;27.494;2022-12-20T03:13:32;27.75;;;24.77;;
56810;SDS011;42691;47.234;27.494;2022-12-20T03:15:57;37.97;;;26.50;;
56810;SDS011;42691;47.234;27.494;2022-12-20T03:18:23;31.63;;;25.27;;
56810;SDS011;42691;47.234;27.494;2022-12-20T03:20:48;29.67;;;26.73;;
56810;SDS011;42691;47.234;27.494;2022-12-20T03:23:14;30.40;;;24.88;;
56810;SDS011;42691;47.234;27.494;2022-12-20T03:25:39;26.65;;;23.80;;
56810;SDS011;42691;47.234;27.494;2022-12-20T03:28:04;30.55;;;24.42;;
56810;SDS011;42691;47.234;27.494;2022-12-20T03:30:30;36.53;;;26.42;;
56810;SDS011;42691;47.234;27.494;2022-12-20T03:32:55;30.35;;;25.95;;
56810;SDS011;42691;47.234;27.494;2022-12-20T03:35:21;34.83;;;23.58;;
56810;SDS011;42691;47.234;27.494;2022-12-20T03:37:46;33.67;;;26.17;;
56810;SDS011;42691;47.234;27.494;2022-12-20T03:40:12;32.85;;;26.70;;
56810;SDS011;42691;47.234;27.494;2022-12-20T03:42:38;30.98;;;26.35;;
56810;SDS011;42691;47.234;27.494;2022-12-20T03:45:03;35.67;;;24.90;;
56810;SDS011;42691;47.234;27.494;2022-12-20T03:47:29;28.58;;;24.65;;
56810;SDS011;42691;47.234;27.494;2022-12-20T03:49:55;31.45;;;23.65;;
56810;SDS011;42691;47.234;27.494;2022-12-20T03:52:21;26.73;;;23.95;;
56810;SDS011;42691;47.234;27.494;2022-12-20T03:54:46;29.77;;;23.30;;
56810;SDS011;42691;47.234;27.494;2022-12-20T03:57:12;31.17;;;23.38;;
56810;SDS011;42691;47.234;27.494;2022-12-20T03:59:37;24.75;;;22.35;;
56810;SDS011;42691;47.234;27.494;2022-12-20T04:02:03;28.83;;;20.65;;
56810;SDS011;42691;47.234;27.494;2022-12-20T04:04:28;28.15;;;23.60;;
56810;SDS011;42691;47.234;27.494;2022-12-20T04:06:54;34.88;;;26.00;;
56810;SDS011;42691;47.234;27.494;2022-12-20T04:09:20;26.45;;;21.88;;
56810;SDS011;42691;47.234;27.494;2022-12-20T04:11:46;34.65;;;24.95;;
56810;SDS011;42691;47.234;27.494;2022-12-20T04:14:11;25.10;;;22.20;;
56810;SDS011;42691;47.234;27.494;2022-12-20T04:16:36;35.90;;;23.95;;
56810;SDS011;42691;47.234;27.494;2022-12-20T04:19:02;24.50;;;21.65;;
56810;SDS011;42691;47.234;27.494;2022-12-20T04:21:29;24.27;;;19.52;;
56810;SDS011;42691;47.234;27.494;2022-12-20T04:23:56;29.05;;;24.73;;
56810;SDS011;42691;47.234;27.494;2022-12-20T04:26:23;35.75;;;24.52;;
56810;SDS011;42691;47.234;27.494;2022-12-20T04:28:48;31.33;;;26.80;;
56810;SDS011;42691;47.234;27.494;2022-12-20T04:31:14;31.13;;;26.48;;
56810;SDS011;42691;47.234;27.494;2022-12-20T04:33:39;29.20;;;23.60;;
56810;SDS011;42691;47.234;27.494;2022-12-20T04:36:05;38.15;;;27.13;;
56810;SDS011;42691;47.234;27.494;2022-12-20T04:38:31;27.77;;;24.67;;
56810;SDS011;42691;47.234;27.494;2022-12-20T04:40:57;27.00;;;23.63;;
56810;SDS011;42691;47.234;27.494;2022-12-20T04:43:23;28.40;;;23.23;;
56810;SDS011;42691;47.234;27.494;2022-12-20T04:45:50;29.35;;;23.10;;
56810;SDS011;42691;47.234;27.494;2022-12-20T04:48:17;38.55;;;26.20;;
56810;SDS011;42691;47.234;27.494;2022-12-20T04:50:47;31.40;;;23.83;;
56810;SDS011;42691;47.234;27.494;2022-12-20T04:53:13;30.70;;;25.10;;
56810;SDS011;42691;47.234;27.494;2022-12-20T04:55:57;31.80;;;26.20;;
56810;SDS011;42691;47.234;27.494;2022-12-20T04:58:23;34.30;;;22.60;;
56810;SDS011;42691;47.234;27.494;2022-12-20T05:00:49;24.05;;;21.40;;
56810;SDS011;42691;47.234;27.494;2022-12-20T05:03:16;29.77;;;22.58;;
56810;SDS011;42691;47.234;27.494;2022-12-20T05:05:42;27.35;;;22.88;;
56810;SDS011;42691;47.234;27.494;2022-12-20T05:08:08;26.08;;;21.58;;
56810;SDS011;42691;47.234;27.494;2022-12-20T05:10:33;27.50;;;21.08;;
56810;SDS011;42691;47.234;27.494;2022-12-20T05:12:59;36.38;;;25.35;;
56810;SDS011;42691;47.234;27.494;2022-12-20T05:15:24;30.05;;;23.08;;
56810;SDS011;42691;47.234;27.494;2022-12-20T05:17:50;29.50;;;21.67;;
56810;SDS011;42691;47.234;27.494;2022-12-20T05:20:15;25.50;;;21.75;;
56810;SDS011;42691;47.234;27.494;2022-12-20T05:22:41;28.80;;;22.33;;
56810;SDS011;42691;47.234;27.494;2022-12-20T05:25:26;23.77;;;19.98;;
56810;SDS011;42691;47.234;27.494;2022-12-20T05:28:10;24.88;;;18.60;;
56810;SDS011;42691;47.234;27.494;2022-12-20T05:30:35;23.60;;;18.52;;
56810;SDS011;42691;47.234;27.494;2022-12-20T05:33:01;30.20;;;19.00;;
56810;SDS011;42691;47.234;27.494;2022-12-20T05:35:27;21.38;;;18.02;;
56810;SDS011;42691;47.234;27.494;2022-12-20T05:37:52;27.50;;;20.83;;
56810;SDS011;42691;47.234;27.494;2022-12-20T05:40:17;22.40;;;18.60;;
56810;SDS011;42691;47.234;27.494;2022-12-20T05:42:43;26.00;;;21.00;;
56810;SDS011;42691;47.234;27.494;2022-12-20T05:45:09;22.25;;;18.25;;
56810;SDS011;42691;47.234;27.494;2022-12-20T05:47:35;19.65;;;14.73;;
56810;SDS011;42691;47.234;27.494;2022-12-20T05:50:00;20.52;;;16.17;;
56810;SDS011;42691;47.234;27.494;2022-12-20T05:52:28;28.98;;;21.45;;
56810;SDS011;42691;47.234;27.494;2022-12-20T05:54:53;32.75;;;19.50;;
56810;SDS011;42691;47.234;27.494;2022-12-20T05:57:19;25.60;;;19.77;;
56810;SDS011;42691;47.234;27.494;2022-12-20T05:59:44;21.25;;;16.65;;
56810;SDS011;42691;47.234;27.494;2022-12-20T06:02:10;19.52;;;14.70;;
56810;SDS011;42691;47.234;27.494;2022-12-20T06:04:36;22.88;;;19.60;;
56810;SDS011;42691;47.234;27.494;2022-12-20T06:07:02;23.88;;;17.85;;
56810;SDS011;42691;47.234;27.494;2022-12-20T06:09:29;36.05;;;20.88;;
56810;SDS011;42691;47.234;27.494;2022-12-20T06:11:55;24.55;;;18.15;;
56810;SDS011;42691;47.234;27.494;2022-12-20T06:14:20;28.20;;;17.42;;
56810;SDS011;42691;47.234;27.494;2022-12-20T06:16:46;22.20;;;20.00;;
56810;SDS011;42691;47.234;27.494;2022-12-20T06:19:12;24.63;;;18.90;;
56810;SDS011;42691;47.234;27.494;2022-12-20T06:21:38;23.63;;;18.88;;
56810;SDS011;42691;47.234;27.494;2022-12-20T06:24:04;28.60;;;17.50;;
56810;SDS011;42691;47.234;27.494;2022-12-20T06:26:30;19.45;;;16.73;;
56810;SDS011;42691;47.234;27.494;2022-12-20T06:29:00;20.90;;;16.65;;
56810;SDS011;42691;47.234;27.494;2022-12-20T06:31:26;24.90;;;18.45;;
56810;SDS011;42691;47.234;27.494;2022-12-20T06:33:51;24.95;;;21.05;;
56810;SDS011;42691;47.234;27.494;2022-12-20T06:36:17;35.58;;;17.30;;
56810;SDS011;42691;47.234;27.494;2022-12-20T06:38:42;73.35;;;22.88;;
56810;SDS011;42691;47.234;27.494;2022-12-20T06:41:08;32.90;;;17.25;;
56810;SDS011;42691;47.234;27.494;2022-12-20T06:43:33;42.55;;;17.83;;
56810;SDS011;42691;47.234;27.494;2022-12-20T06:45:58;26.13;;;18.15;;
56810;SDS011;42691;47.234;27.494;2022-12-20T06:48:24;54.35;;;22.60;;
56810;SDS011;42691;47.234;27.494;2022-12-20T06:50:49;27.35;;;16.23;;
56810;SDS011;42691;47.234;27.494;2022-12-20T06:53:15;29.90;;;18.92;;
56810;SDS011;42691;47.234;27.494;2022-12-20T06:55:41;37.72;;;18.73;;
56810;SDS011;42691;47.234;27.494;2022-12-20T06:58:06;21.85;;;16.83;;
56810;SDS011;42691;47.234;27.494;2022-12-20T07:00:32;22.83;;;17.27;;
56810;SDS011;42691;47.234;27.494;2022-12-20T07:02:57;24.02;;;15.27;;
56810;SDS011;42691;47.234;27.494;2022-12-20T07:05:23;23.67;;;19.38;;
56810;SDS011;42691;47.234;27.494;2022-12-20T07:07:49;19.35;;;16.58;;
56810;SDS011;42691;47.234;27.494;2022-12-20T07:10:14;22.60;;;16.73;;
56810;SDS011;42691;47.234;27.494;2022-12-20T07:12:40;25.05;;;17.15;;
56810;SDS011;42691;47.234;27.494;2022-12-20T07:15:05;12.77;;;7.57;;
56810;SDS011;42691;47.234;27.494;2022-12-20T07:17:32;18.80;;;15.43;;
56810;SDS011;42691;47.234;27.494;2022-12-20T07:19:57;36.60;;;18.38;;
56810;SDS011;42691;47.234;27.494;2022-12-20T07:22:23;27.50;;;17.95;;
56810;SDS011;42691;47.234;27.494;2022-12-20T07:24:48;25.00;;;17.23;;
56810;SDS011;42691;47.234;27.494;2022-12-20T07:27:14;18.98;;;14.00;;
56810;SDS011;42691;47.234;27.494;2022-12-20T07:29:40;21.50;;;18.77;;
56810;SDS011;42691;47.234;27.494;2022-12-20T07:32:06;23.85;;;18.10;;
56810;SDS011;42691;47.234;27.494;2022-12-20T07:34:32;25.60;;;15.88;;
56810;SDS011;42691;47.234;27.494;2022-12-20T07:36:57;26.55;;;20.85;;
56810;SDS011;42691;47.234;27.494;2022-12-20T07:39:23;19.77;;;15.68;;
56810;SDS011;42691;47.234;27.494;2022-12-20T07:41:51;25.08;;;18.50;;
56810;SDS011;42691;47.234;27.494;2022-12-20T07:44:18;19.77;;;17.40;;
56810;SDS011;42691;47.234;27.494;2022-12-20T07:46:43;21.50;;;14.30;;
56810;SDS011;42691;47.234;27.494;2022-12-20T07:49:09;18.27;;;14.98;;
56810;SDS011;42691;47.234;27.494;2022-12-20T07:51:35;26.05;;;15.52;;
56810;SDS011;42691;47.234;27.494;2022-12-20T07:54:07;17.60;;;13.90;;
56810;SDS011;42691;47.234;27.494;2022-12-20T07:56:37;24.70;;;16.27;;
56810;SDS011;42691;47.234;27.494;2022-12-20T07:59:06;21.15;;;15.85;;
56810;SDS011;42691;47.234;27.494;2022-12-20T08:01:32;24.55;;;18.88;;
56810;SDS011;42691;47.234;27.494;2022-12-20T08:03:59;20.15;;;13.45;;
56810;SDS011;42691;47.234;27.494;2022-12-20T08:06:29;22.65;;;14.48;;
56810;SDS011;42691;47.234;27.494;2022-12-20T08:08:56;20.63;;;15.65;;
56810;SDS011;42691;47.234;27.494;2022-12-20T08:11:24;21.20;;;16.05;;
56810;SDS011;42691;47.234;27.494;2022-12-20T08:13:53;20.50;;;15.40;;
56810;SDS011;42691;47.234;27.494;2022-12-20T08:16:19;18.27;;;12.52;;
56810;SDS011;42691;47.234;27.494;2022-12-20T08:18:44;19.75;;;16.65;;
56810;SDS011;42691;47.234;27.494;2022-12-20T08:21:10;16.45;;;12.95;;
56810;SDS011;42691;47.234;27.494;2022-12-20T08:23:37;16.70;;;12.80;;
56810;SDS011;42691;47.234;27.494;2022-12-20T08:26:02;25.08;;;17.05;;
56810;SDS011;42691;47.234;27.494;2022-12-20T08:28:28;18.85;;;14.93;;
56810;SDS011;42691;47.234;27.494;2022-12-20T08:30:59;16.20;;;12.90;;
56810;SDS011;42691;47.234;27.494;2022-12-20T08:33:25;17.67;;;14.15;;
56810;SDS011;42691;47.234;27.494;2022-12-20T08:35:56;17.20;;;12.32;;
56810;SDS011;42691;47.234;27.494;2022-12-20T08:38:22;19.08;;;14.20;;
56810;SDS011;42691;47.234;27.494;2022-12-20T08:40:47;24.15;;;15.43;;
56810;SDS011;42691;47.234;27.494;2022-12-20T08:43:13;17.27;;;13.57;;
56810;SDS011;42691;47.234;27.494;2022-12-20T08:45:38;20.45;;;14.30;;
56810;SDS011;42691;47.234;27.494;2022-12-20T08:48:04;29.27;;;14.57;;
56810;SDS011;42691;47.234;27.494;2022-12-20T08:50:29;16.77;;;14.95;;
56810;SDS011;42691;47.234;27.494;2022-12-20T08:52:55;17.13;;;12.27;;
56810;SDS011;42691;47.234;27.494;2022-12-20T08:55:20;16.30;;;9.60;;
56810;SDS011;42691;47.234;27.494;2022-12-20T08:57:46;25.95;;;15.45;;
56810;SDS011;42691;47.234;27.494;2022-12-20T09:00:11;17.42;;;13.23;;
56810;SDS011;42691;47.234;27.494;2022-12-20T09:02:37;15.35;;;11.82;;
56810;SDS011;42691;47.234;27.494;2022-12-20T09:05:05;18.15;;;14.10;;
56810;SDS011;42691;47.234;27.494;2022-12-20T09:07:30;16.55;;;14.75;;
56810;SDS011;42691;47.234;27.494;2022-12-20T09:09:56;17.17;;;13.68;;
56810;SDS011;42691;47.234;27.494;2022-12-20T09:12:21;18.13;;;12.63;;
56810;SDS011;42691;47.234;27.494;2022-12-20T09:14:47;18.23;;;12.60;;
56810;SDS011;42691;47.234;27.494;2022-12-20T09:17:13;17.33;;;14.80;;
56810;SDS011;42691;47.234;27.494;2022-12-20T09:19:38;16.05;;;13.32;;
56810;SDS011;42691;47.234;27.494;2022-12-20T09:22:03;19.67;;;12.52;;
56810;SDS011;42691;47.234;27.494;2022-12-20T09:24:29;19.92;;;14.85;;
56810;SDS011;42691;47.234;27.494;2022-12-20T09:26:55;18.85;;;14.32;;
56810;SDS011;42691;47.234;27.494;2022-12-20T09:29:20;22.05;;;16.13;;
56810;SDS011;42691;47.234;27.494;2022-12-20T09:31:47;20.13;;;13.77;;
56810;SDS011;42691;47.234;27.494;2022-12-20T09:34:13;20.90;;;16.45;;
56810;SDS011;42691;47.234;27.494;2022-12-20T09:36:39;18.38;;;14.90;;
56810;SDS011;42691;47.234;27.494;2022-12-20T09:39:04;14.45;;;11.02;;
56810;SDS011;42691;47.234;27.494;2022-12-20T09:41:35;19.73;;;12.05;;
56810;SDS011;42691;47.234;27.494;2022-12-20T09:46:51;17.17;;;12.75;;
56810;SDS011;42691;47.234;27.494;2022-12-20T09:49:26;31.10;;;15.10;;
56810;SDS011;42691;47.234;27.494;2022-12-20T09:59:25;19.30;;;13.65;;
56810;SDS011;42691;47.234;27.494;2022-12-20T10:01:51;24.30;;;12.75;;
56810;SDS011;42691;47.234;27.494;2022-12-20T10:04:20;14.20;;;12.18;;
56810;SDS011;42691;47.234;27.494;2022-12-20T10:15:49;13.38;;;11.95;;
56810;SDS011;42691;47.234;27.494;2022-12-20T10:23:45;15.02;;;12.60;;
56810;SDS011;42691;47.234;27.494;2022-12-20T10:26:26;13.93;;;9.73;;
56810;SDS011;42691;47.234;27.494;2022-12-20T10:28:52;9.95;;;8.82;;
56810;SDS011;42691;47.234;27.494;2022-12-20T10:31:18;18.15;;;10.57;;
56810;SDS011;42691;47.234;27.494;2022-12-20T10:33:44;18.83;;;12.77;;
56810;SDS011;42691;47.234;27.494;2022-12-20T10:36:16;19.10;;;12.68;;
56810;SDS011;42691;47.234;27.494;2022-12-20T10:38:49;15.45;;;11.55;;
56810;SDS011;42691;47.234;27.494;2022-12-20T10:41:20;19.50;;;13.15;;
56810;SDS011;42691;47.234;27.494;2022-12-20T10:46:15;20.00;;;13.10;;
56810;SDS011;42691;47.234;27.494;2022-12-20T10:48:42;17.73;;;11.57;;
56810;SDS011;42691;47.234;27.494;2022-12-20T10:53:35;14.45;;;10.05;;
56810;SDS011;42691;47.234;27.494;2022-12-20T10:58:36;13.73;;;10.07;;
56810;SDS011;42691;47.234;27.494;2022-12-20T11:06:18;15.43;;;12.32;;
56810;SDS011;42691;47.234;27.494;2022-12-20T11:08:45;12.43;;;9.63;;
56810;SDS011;42691;47.234;27.494;2022-12-20T11:11:22;23.45;;;11.00;;
56810;SDS011;42691;47.234;27.494;2022-12-20T11:13:49;11.98;;;9.57;;
56810;SDS011;42691;47.234;27.494;2022-12-20T11:16:28;19.83;;;10.63;;
56810;SDS011;42691;47.234;27.494;2022-12-20T11:24:27;16.10;;;12.63;;
56810;SDS011;42691;47.234;27.494;2022-12-20T11:37:22;15.80;;;11.35;;
56810;SDS011;42691;47.234;27.494;2022-12-20T11:42:31;14.95;;;11.02;;
56810;SDS011;42691;47.234;27.494;2022-12-20T11:53:27;15.00;;;12.43;;
56810;SDS011;42691;47.234;27.494;2022-12-20T11:56:16;15.77;;;10.63;;
56810;SDS011;42691;47.234;27.494;2022-12-20T11:58:46;10.75;;;8.60;;
56810;SDS011;42691;47.234;27.494;2022-12-20T12:01:21;20.25;;;10.75;;
56810;SDS011;42691;47.234;27.494;2022-12-20T12:06:37;19.35;;;11.35;;
56810;SDS011;42691;47.234;27.494;2022-12-20T12:09:45;14.65;;;11.52;;
56810;SDS011;42691;47.234;27.494;2022-12-20T12:12:09;16.20;;;11.60;;
56810;SDS011;42691;47.234;27.494;2022-12-20T12:17:37;21.98;;;11.63;;
56810;SDS011;42691;47.234;27.494;2022-12-20T12:22:52;21.03;;;12.27;;
56810;SDS011;42691;47.234;27.494;2022-12-20T12:25:22;19.88;;;11.63;;
56810;SDS011;42691;47.234;27.494;2022-12-20T12:27:48;17.40;;;12.27;;
56810;SDS011;42691;47.234;27.494;2022-12-20T12:30:14;16.98;;;13.00;;
56810;SDS011;42691;47.234;27.494;2022-12-20T12:32:49;12.82;;;10.77;;
56810;SDS011;42691;47.234;27.494;2022-12-20T12:35:29;16.75;;;11.60;;
56810;SDS011;42691;47.234;27.494;2022-12-20T12:38:23;16.13;;;11.60;;
56810;SDS011;42691;47.234;27.494;2022-12-20T12:46:08;15.40;;;10.25;;
56810;SDS011;42691;47.234;27.494;2022-12-20T12:48:58;20.33;;;13.75;;
56810;SDS011;42691;47.234;27.494;2022-12-20T12:51:30;16.20;;;10.82;;
56810;SDS011;42691;47.234;27.494;2022-12-20T12:56:38;15.45;;;10.93;;
56810;SDS011;42691;47.234;27.494;2022-12-20T13:01:51;15.93;;;10.23;;
56810;SDS011;42691;47.234;27.494;2022-12-20T13:04:28;22.95;;;13.43;;
56810;SDS011;42691;47.234;27.494;2022-12-20T13:07:02;17.17;;;12.63;;
56810;SDS011;42691;47.234;27.494;2022-12-20T13:15:10;15.25;;;13.48;;
56810;SDS011;42691;47.234;27.494;2022-12-20T13:20:34;18.70;;;11.20;;
56810;SDS011;42691;47.234;27.494;2022-12-20T13:25:32;15.32;;;13.73;;
56810;SDS011;42691;47.234;27.494;2022-12-20T13:30:44;21.15;;;13.27;;
56810;SDS011;42691;47.234;27.494;2022-12-20T13:33:18;23.63;;;15.73;;
56810;SDS011;42691;47.234;27.494;2022-12-20T13:41:34;17.42;;;13.45;;
56810;SDS011;42691;47.234;27.494;2022-12-20T13:46:42;54.75;;;17.25;;
56810;SDS011;42691;47.234;27.494;2022-12-20T13:49:11;26.90;;;18.48;;
56810;SDS011;42691;47.234;27.494;2022-12-20T13:51:45;21.13;;;13.82;;
56810;SDS011;42691;47.234;27.494;2022-12-20T13:54:14;17.35;;;14.85;;
56810;SDS011;42691;47.234;27.494;2022-12-20T13:56:47;22.63;;;14.75;;
56810;SDS011;42691;47.234;27.494;2022-12-20T14:01:49;23.60;;;15.20;;
56810;SDS011;42691;47.234;27.494;2022-12-20T14:04:17;20.40;;;15.65;;
56810;SDS011;42691;47.234;27.494;2022-12-20T14:06:49;27.55;;;19.23;;
56810;SDS011;42691;47.234;27.494;2022-12-20T14:09:27;19.15;;;15.55;;
56810;SDS011;42691;47.234;27.494;2022-12-20T14:12:18;28.80;;;15.90;;
56810;SDS011;42691;47.234;27.494;2022-12-20T14:14:47;18.33;;;15.05;;
56810;SDS011;42691;47.234;27.494;2022-12-20T14:17:15;27.23;;;15.98;;
56810;SDS011;42691;47.234;27.494;2022-12-20T14:20:06;23.08;;;15.57;;
56810;SDS011;42691;47.234;27.494;2022-12-20T14:23:02;24.98;;;16.38;;
56810;SDS011;42691;47.234;27.494;2022-12-20T14:25:47;19.38;;;14.10;;
56810;SDS011;42691;47.234;27.494;2022-12-20T14:28:38;22.60;;;17.92;;
56810;SDS011;42691;47.234;27.494;2022-12-20T14:31:07;17.95;;;14.77;;
56810;SDS011;42691;47.234;27.494;2022-12-20T14:36:26;21.48;;;15.95;;
56810;SDS011;42691;47.234;27.494;2022-12-20T14:38:54;20.13;;;15.27;;
56810;SDS011;42691;47.234;27.494;2022-12-20T14:44:19;18.85;;;15.30;;
56810;SDS011;42691;47.234;27.494;2022-12-20T14:46:57;20.60;;;16.83;;
56810;SDS011;42691;47.234;27.494;2022-12-20T14:49:30;20.95;;;18.25;;
56810;SDS011;42691;47.234;27.494;2022-12-20T14:54:42;25.13;;;18.60;;
56810;SDS011;42691;47.234;27.494;2022-12-20T14:57:19;19.85;;;17.02;;
56810;SDS011;42691;47.234;27.494;2022-12-20T15:08:40;30.25;;;19.58;;
56810;SDS011;42691;47.234;27.494;2022-12-20T15:11:00;25.10;;;18.83;;
56810;SDS011;42691;47.234;27.494;2022-12-20T15:13:46;22.48;;;19.88;;
56810;SDS011;42691;47.234;27.494;2022-12-20T15:18:44;23.27;;;18.90;;
56810;SDS011;42691;47.234;27.494;2022-12-20T15:23:48;26.90;;;22.65;;
56810;SDS011;42691;47.234;27.494;2022-12-20T15:26:19;28.23;;;18.67;;
56810;SDS011;42691;47.234;27.494;2022-12-20T15:28:47;21.52;;;17.75;;
56810;SDS011;42691;47.234;27.494;2022-12-20T15:31:13;30.30;;;22.20;;
56810;SDS011;42691;47.234;27.494;2022-12-20T15:33:41;33.30;;;21.08;;
56810;SDS011;42691;47.234;27.494;2022-12-20T15:36:17;27.80;;;19.55;;
56810;SDS011;42691;47.234;27.494;2022-12-20T15:38:47;22.95;;;20.48;;
56810;SDS011;42691;47.234;27.494;2022-12-20T15:41:23;25.90;;;21.23;;
56810;SDS011;42691;47.234;27.494;2022-12-20T15:43:59;26.80;;;19.83;;
56810;SDS011;42691;47.234;27.494;2022-12-20T15:46:29;30.52;;;21.83;;
56810;SDS011;42691;47.234;27.494;2022-12-20T15:48:55;23.17;;;18.67;;
56810;SDS011;42691;47.234;27.494;2022-12-20T15:51:30;30.92;;;21.48;;
56810;SDS011;42691;47.234;27.494;2022-12-20T15:53:58;22.40;;;18.45;;
56810;SDS011;42691;47.234;27.494;2022-12-20T15:56:25;28.33;;;22.33;;
56810;SDS011;42691;47.234;27.494;2022-12-20T15:58:52;27.38;;;21.10;;
56810;SDS011;42691;47.234;27.494;2022-12-20T16:01:19;24.75;;;19.60;;
56810;SDS011;42691;47.234;27.494;2022-12-20T16:03:47;30.88;;;21.23;;
56810;SDS011;42691;47.234;27.494;2022-12-20T16:06:12;26.55;;;19.67;;
56810;SDS011;42691;47.234;27.494;2022-12-20T16:08:38;24.25;;;21.67;;
56810;SDS011;42691;47.234;27.494;2022-12-20T16:11:05;26.73;;;22.23;;
56810;SDS011;42691;47.234;27.494;2022-12-20T16:13:31;24.90;;;20.13;;
56810;SDS011;42691;47.234;27.494;2022-12-20T16:15:57;21.42;;;19.15;;
56810;SDS011;42691;47.234;27.494;2022-12-20T16:18:24;25.83;;;19.40;;
56810;SDS011;42691;47.234;27.494;2022-12-20T16:20:50;26.80;;;19.00;;
56810;SDS011;42691;47.234;27.494;2022-12-20T16:23:19;21.10;;;18.50;;
56810;SDS011;42691;47.234;27.494;2022-12-20T16:25:48;23.73;;;20.70;;
56810;SDS011;42691;47.234;27.494;2022-12-20T16:28:15;22.73;;;17.85;;
56810;SDS011;42691;47.234;27.494;2022-12-20T16:30:41;24.00;;;18.55;;
56810;SDS011;42691;47.234;27.494;2022-12-20T16:33:19;24.42;;;18.48;;
56810;SDS011;42691;47.234;27.494;2022-12-20T16:35:45;24.35;;;21.05;;
56810;SDS011;42691;47.234;27.494;2022-12-20T16:38:11;27.10;;;20.42;;
56810;SDS011;42691;47.234;27.494;2022-12-20T16:40:36;28.45;;;20.88;;
56810;SDS011;42691;47.234;27.494;2022-12-20T16:43:02;24.50;;;22.00;;
56810;SDS011;42691;47.234;27.494;2022-12-20T16:45:28;27.67;;;19.80;;
56810;SDS011;42691;47.234;27.494;2022-12-20T16:47:55;30.13;;;22.33;;
56810;SDS011;42691;47.234;27.494;2022-12-20T16:50:22;27.63;;;18.08;;